Time;durP1;ratioP1;P1;durP2;ratioP2;P2;SDS_P1;SDS_P2;PMS_P1;PMS_P2;Temp;Humidity;BMP_temperature;BMP_pressure;BME280_temperature;BME280_humidity;BME280_pressure;Samples;Min_cycle;Max_cycle;Signal;HPM_P1;HPM_P2
2022/07/03 00:01:15;;;;;;;1.17;0.93;;;;;;;22.21;52.82;100480.44;5031934;28;20398;-74
2022/07/03 00:03:41;;;;;;;1.17;0.90;;;;;;;22.15;53.27;100478.97;5031815;28;20391;-74
2022/07/03 00:06:06;;;;;;;1.90;1.20;;;;;;;22.22;53.13;100476.56;5023486;28;20431;-74
2022/07/03 00:08:31;;;;;;;2.90;1.50;;;;;;;22.31;53.13;100489.53;5009392;28;20777;-74
2022/07/03 00:10:56;;;;;;;0.93;0.80;;;;;;;22.32;53.25;100482.91;5024131;28;20833;-74
2022/07/03 00:13:22;;;;;;;1.20;0.80;;;;;;;22.32;53.49;100485.66;5020404;28;20395;-74
2022/07/03 00:15:47;;;;;;;1.60;0.90;;;;;;;22.39;53.26;100474.94;5017324;28;20395;-74
2022/07/03 00:18:12;;;;;;;0.87;0.87;;;;;;;22.35;53.33;100488.59;5031359;28;20758;-74
2022/07/03 00:20:44;;;;;;;1.10;0.97;;;;;;;22.22;53.89;100484.00;5030686;28;20407;-74
2022/07/03 00:23:13;;;;;;;0.93;0.93;;;;;;;22.07;54.25;100484.44;5016766;28;20421;-74
2022/07/03 00:25:40;;;;;;;1.15;0.90;;;;;;;22.00;54.64;100479.41;5024378;28;20397;-74
2022/07/03 00:28:07;;;;;;;3.88;1.20;;;;;;;21.94;55.03;100480.69;5018184;28;20489;-74
2022/07/03 00:30:33;;;;;;;0.90;0.90;;;;;;;21.85;55.05;100476.25;5019754;28;20708;-74
2022/07/03 00:33:04;;;;;;;3.63;1.30;;;;;;;21.87;54.88;100476.72;5030958;28;20497;-74
2022/07/03 00:35:32;;;;;;;1.08;1.08;;;;;;;21.90;54.70;100478.91;5029447;28;20391;-75
2022/07/03 00:37:58;;;;;;;0.97;0.97;;;;;;;21.94;54.33;100483.44;5023629;28;20469;-74
2022/07/03 00:40:24;;;;;;;2.15;0.90;;;;;;;22.03;53.92;100478.75;5027892;28;20464;-74
2022/07/03 00:42:51;;;;;;;1.30;0.60;;;;;;;22.15;53.32;100480.91;5017679;28;20904;-74
2022/07/03 00:45:19;;;;;;;2.00;0.77;;;;;;;22.24;52.98;100487.25;5018582;28;20393;-74
2022/07/03 00:47:45;;;;;;;0.70;0.70;;;;;;;22.23;53.06;100483.69;5016828;28;20414;-74
2022/07/03 00:50:10;;;;;;;0.90;0.80;;;;;;;22.22;52.71;100484.00;5023376;28;20903;-74
2022/07/03 00:52:37;;;;;;;0.80;0.80;;;;;;;22.24;52.81;100493.59;5013476;28;20507;-74
2022/07/03 00:55:07;;;;;;;0.90;0.90;;;;;;;22.14;53.17;100493.88;5018414;28;20381;-74
2022/07/03 00:57:33;;;;;;;1.45;0.70;;;;;;;22.09;53.41;100496.00;5026691;28;20384;-74
2022/07/03 01:00:00;;;;;;;1.40;0.70;;;;;;;22.06;53.50;100494.66;5027930;28;20525;-74
2022/07/03 01:02:34;;;;;;;2.90;0.93;;;;;;;22.06;53.44;100494.66;5020826;28;20899;-74
2022/07/03 01:05:24;;;;;;;2.10;0.80;;;;;;;22.04;53.50;100488.66;5044282;28;20716;-74
2022/07/03 01:08:40;;;;;;;0.90;0.90;;;;;;;22.02;53.53;100492.88;5003365;28;20499;-74
2022/07/03 01:11:31;;;;;;;0.90;0.60;;;;;;;21.96;53.80;100496.94;5021301;28;20428;-74
2022/07/03 01:14:02;;;;;;;1.07;0.67;;;;;;;21.89;53.87;100500.16;5021631;28;20401;-74
2022/07/03 01:16:38;;;;;;;0.52;0.52;;;;;;;21.85;54.08;100495.56;5020675;28;20395;-74
2022/07/03 01:19:21;;;;;;;1.15;0.52;;;;;;;21.83;54.19;100498.66;5018435;28;20814;-74
2022/07/03 01:21:52;;;;;;;0.52;0.52;;;;;;;21.80;54.44;100503.97;5009666;28;20507;-74
2022/07/03 01:24:23;;;;;;;0.50;0.50;;;;;;;21.76;54.58;100501.03;5017177;28;20736;-74
2022/07/03 01:26:54;;;;;;;1.48;0.80;;;;;;;21.71;54.75;100490.13;5014943;28;20389;-74
2022/07/03 01:29:28;;;;;;;0.80;0.65;;;;;;;21.67;55.11;100497.41;5027133;28;20453;-74
2022/07/03 01:31:55;;;;;;;3.30;0.70;;;;;;;21.62;55.08;100492.03;5023003;28;20423;-75
2022/07/03 01:34:22;;;;;;;1.45;0.90;;;;;;;21.65;55.13;100489.47;5022531;28;20441;-74
2022/07/03 01:36:49;;;;;;;1.25;0.75;;;;;;;21.69;54.82;100484.13;5033431;28;20424;-74
2022/07/03 01:39:16;;;;;;;1.35;0.60;;;;;;;21.72;54.82;100480.75;5026160;28;20414;-74
2022/07/03 01:41:45;;;;;;;1.20;0.70;;;;;;;21.72;54.88;100481.56;5021663;28;20457;-74
2022/07/03 01:44:13;;;;;;;0.70;0.70;;;;;;;21.71;54.78;100476.34;5015917;28;20404;-74
2022/07/03 01:46:41;;;;;;;1.55;0.95;;;;;;;21.58;55.18;100471.75;5022599;28;20410;-74
2022/07/03 01:49:10;;;;;;;1.48;0.80;;;;;;;21.47;55.93;100484.97;5045709;28;20469;-74
2022/07/03 01:51:38;;;;;;;1.35;0.60;;;;;;;21.36;56.01;100478.13;5028690;28;20410;-74
2022/07/03 01:54:05;;;;;;;0.80;0.80;;;;;;;21.36;56.24;100478.13;5027987;28;20402;-74
2022/07/03 01:56:32;;;;;;;0.75;0.75;;;;;;;21.33;56.31;100483.47;5019838;28;20399;-74
2022/07/03 01:58:59;;;;;;;0.80;0.60;;;;;;;21.38;56.31;100478.63;5018309;28;20398;-74
2022/07/03 02:01:39;;;;;;;2.55;0.77;;;;;;;21.43;55.77;100485.94;5020875;28;20424;-74
2022/07/03 02:04:21;;;;;;;1.90;0.60;;;;;;;21.35;56.12;100476.50;5025555;28;20387;-74
2022/07/03 02:07:08;;;;;;;0.63;0.63;;;;;;;21.39;56.33;100471.97;5021308;28;20415;-74
2022/07/03 02:09:58;;;;;;;1.50;0.73;;;;;;;21.32;56.40;100476.31;5020318;28;20383;-74
2022/07/03 02:12:30;;;;;;;0.50;0.50;;;;;;;21.19;56.96;100478.84;5012636;28;20476;-74
2022/07/03 02:15:05;;;;;;;0.70;0.70;;;;;;;21.05;57.60;100480.00;5034173;28;20441;-74
2022/07/03 02:17:42;;;;;;;2.50;1.10;;;;;;;20.99;57.74;100476.56;5033716;28;20387;-74
2022/07/03 02:20:09;;;;;;;1.17;0.88;;;;;;;20.99;58.01;100475.75;5033578;28;20391;-74
2022/07/03 02:22:42;;;;;;;0.80;0.80;;;;;;;20.94;58.02;100479.47;5005261;28;20427;-74
2022/07/03 02:25:15;;;;;;;0.80;0.80;;;;;;;20.91;58.30;100462.75;5032665;28;20391;-74
2022/07/03 02:27:53;;;;;;;1.70;1.02;;;;;;;20.81;58.58;100469.31;5013014;28;20401;-74
2022/07/03 02:30:19;;;;;;;0.88;0.88;;;;;;;20.71;58.63;100478.59;5033800;28;21008;-74
2022/07/03 02:32:49;;;;;;;0.83;0.83;;;;;;;20.67;58.86;100474.88;5033429;28;20451;-74
2022/07/03 02:35:22;;;;;;;3.42;0.90;;;;;;;20.66;58.73;100476.00;5027762;28;20496;-74
2022/07/03 02:38:03;;;;;;;1.50;0.70;;;;;;;20.58;59.05;100484.97;5032787;28;20474;-74
2022/07/03 02:40:45;;;;;;;0.80;0.80;;;;;;;20.58;58.96;100484.97;5026327;28;20398;-74
2022/07/03 02:43:33;;;;;;;0.70;0.70;;;;;;;20.64;58.98;100488.44;5033488;28;20395;-74
2022/07/03 02:48:54;;;;;;;1.05;0.75;;;;;;;20.65;58.68;100488.13;5026559;28;20438;-74
2022/07/03 02:51:23;;;;;;;0.70;0.70;;;;;;;20.64;58.69;100483.75;5032515;28;20418;-74
2022/07/03 02:54:04;;;;;;;0.60;0.60;;;;;;;20.62;58.73;100486.00;5048640;28;20391;-74
2022/07/03 02:56:47;;;;;;;1.02;0.63;;;;;;;20.57;58.72;100488.88;5033444;28;20379;-74
2022/07/03 02:59:52;;;;;;;1.40;0.80;;;;;;;20.66;58.43;100492.50;5019499;28;20393;-74
2022/07/03 03:02:25;;;;;;;0.88;0.88;;;;;;;20.78;58.03;100489.19;5001865;28;20407;-74
2022/07/03 03:05:26;;;;;;;1.90;0.90;;;;;;;20.90;57.68;100494.16;5048364;28;20486;-74
2022/07/03 03:08:16;;;;;;;0.70;0.70;;;;;;;20.98;57.53;100494.22;5029331;28;20897;-74
2022/07/03 03:10:44;;;;;;;2.28;0.60;;;;;;;20.98;57.43;100494.22;5033066;28;20419;-74
2022/07/03 03:13:16;;;;;;;1.92;0.80;;;;;;;20.99;57.24;100492.28;5032221;28;20405;-74
2022/07/03 03:16:01;;;;;;;0.90;0.65;;;;;;;21.01;57.01;100503.81;5018908;28;20410;-74
2022/07/03 03:18:28;;;;;;;2.13;0.60;;;;;;;20.98;56.96;100505.22;5022688;28;20429;-74
2022/07/03 03:20:58;;;;;;;2.05;0.80;;;;;;;20.96;56.98;100509.44;5032242;28;20395;-74
2022/07/03 03:23:43;;;;;;;0.93;0.63;;;;;;;20.94;56.92;100509.75;5031796;28;20487;-74
2022/07/03 03:26:10;;;;;;;1.10;0.60;;;;;;;20.91;56.98;100506.81;5032797;28;20391;-74
2022/07/03 03:28:35;;;;;;;0.57;0.57;;;;;;;20.89;57.05;100509.06;5032115;28;20419;-74
2022/07/03 03:31:06;;;;;;;1.03;0.50;;;;;;;20.86;57.17;100509.69;5018108;28;20865;-74
2022/07/03 03:33:32;;;;;;;0.50;0.50;;;;;;;20.84;57.28;100503.69;5032613;28;20415;-74
2022/07/03 03:35:57;;;;;;;0.80;0.80;;;;;;;20.76;57.52;100512.66;5032530;28;20920;-74
2022/07/03 03:38:23;;;;;;;0.67;0.67;;;;;;;20.58;57.98;100519.97;5032052;28;20427;-74
2022/07/03 03:40:49;;;;;;;2.15;0.70;;;;;;;20.52;58.24;100529.44;5032558;28;20390;-74
2022/07/03 03:43:14;;;;;;;1.20;0.50;;;;;;;20.39;58.92;100527.53;5023483;28;20421;-74
2022/07/03 03:45:40;;;;;;;1.27;0.70;;;;;;;20.30;59.29;100521.13;5001765;28;20509;-73
2022/07/03 03:48:06;;;;;;;0.70;0.60;;;;;;;20.25;59.43;100521.22;5024397;28;20912;-74
2022/07/03 03:50:31;;;;;;;1.20;0.65;;;;;;;20.24;59.58;100525.09;5031573;28;20414;-74
2022/07/03 03:52:59;;;;;;;0.60;0.60;;;;;;;20.28;59.76;100528.91;5032080;28;20399;-74
2022/07/03 03:55:24;;;;;;;1.50;0.63;;;;;;;20.27;59.73;100519.81;5032205;28;20399;-74
2022/07/03 03:57:49;;;;;;;3.33;2.53;;;;;;;20.24;59.88;100525.09;5031981;28;20406;-74
2022/07/03 04:00:15;;;;;;;1.10;1.10;;;;;;;20.16;60.31;100532.13;5007948;28;20423;-74
2022/07/03 04:02:40;;;;;;;3.43;1.43;;;;;;;20.18;60.17;100532.66;5047364;28;20453;-74
2022/07/03 04:05:06;;;;;;;3.55;1.17;;;;;;;20.19;60.45;100537.00;5031941;28;20391;-74
2022/07/03 04:07:31;;;;;;;1.00;0.90;;;;;;;20.17;60.42;100537.34;5047538;28;20475;-74
2022/07/03 04:09:56;;;;;;;2.30;1.00;;;;;;;20.11;60.69;100535.00;5030973;28;20502;-74
2022/07/03 04:12:21;;;;;;;1.43;0.77;;;;;;;20.09;60.72;100540.78;5031398;28;20402;-74
2022/07/03 04:14:47;;;;;;;3.47;1.23;;;;;;;20.08;60.93;100543.84;5016673;28;20824;-74
2022/07/03 04:17:12;;;;;;;2.00;1.00;;;;;;;20.07;60.88;100537.53;5020221;28;20399;-74
2022/07/03 04:19:37;;;;;;;1.30;1.00;;;;;;;20.08;61.07;100538.34;5031475;28;20448;-74
2022/07/03 04:22:08;;;;;;;1.97;1.23;;;;;;;20.13;61.16;100550.06;5012845;28;20548;-74
2022/07/03 04:24:33;;;;;;;1.10;0.80;;;;;;;20.13;61.14;100549.25;5016195;28;20411;-74
2022/07/03 04:26:58;;;;;;;0.90;0.90;;;;;;;20.06;61.58;100546.91;5006621;28;20412;-74
2022/07/03 04:29:23;;;;;;;1.17;1.07;;;;;;;20.12;61.68;100553.94;5007083;28;20510;-74
2022/07/03 04:31:49;;;;;;;2.85;0.90;;;;;;;20.16;61.41;100551.38;5030386;28;20411;-74
2022/07/03 04:34:14;;;;;;;2.57;1.03;;;;;;;20.14;61.58;100550.88;5005187;28;20419;-74
2022/07/03 04:36:39;;;;;;;1.10;1.00;;;;;;;20.20;61.14;100552.41;5011743;28;20415;-74
2022/07/03 04:39:04;;;;;;;2.50;0.67;;;;;;;20.16;61.42;100559.63;5025431;28;20391;-74
2022/07/03 04:41:30;;;;;;;2.70;1.30;;;;;;;20.10;61.69;100549.84;5018273;28;20400;-74
2022/07/03 04:43:55;;;;;;;1.67;0.70;;;;;;;20.13;61.68;100552.81;5030869;28;20402;-74
2022/07/03 04:46:21;;;;;;;1.93;0.90;;;;;;;20.22;61.59;100560.38;5014338;28;20395;-74
2022/07/03 04:48:46;;;;;;;0.95;0.80;;;;;;;20.18;61.85;100560.97;5031276;28;20426;-74
2022/07/03 04:51:12;;;;;;;1.70;0.83;;;;;;;20.21;61.76;100559.56;5029740;28;20410;-74
2022/07/03 04:53:37;;;;;;;1.00;0.90;;;;;;;20.30;61.50;100563.25;5012540;28;20751;-74
2022/07/03 04:56:02;;;;;;;5.97;1.10;;;;;;;20.34;61.41;100555.19;5008899;28;20397;-74
2022/07/03 04:58:27;;;;;;;3.30;0.80;;;;;;;20.34;61.87;100555.19;5016300;28;20474;-74
2022/07/03 05:00:53;;;;;;;1.67;0.57;;;;;;;20.38;61.77;100554.28;5026122;28;20882;-74
2022/07/03 05:03:18;;;;;;;2.60;1.00;;;;;;;20.37;62.26;100560.06;5003528;28;20411;-74
2022/07/03 05:05:43;;;;;;;0.70;0.70;;;;;;;20.33;62.42;100568.13;5031018;28;20395;-74
2022/07/03 05:08:08;;;;;;;1.20;1.00;;;;;;;20.33;62.71;100565.38;5017834;28;20400;-74
2022/07/03 05:10:34;;;;;;;1.70;1.02;;;;;;;20.31;62.81;100564.88;5022952;28;20411;-74
2022/07/03 05:12:59;;;;;;;0.70;0.70;;;;;;;20.26;63.36;100572.38;5015843;28;20420;-74
2022/07/03 05:15:25;;;;;;;0.83;0.83;;;;;;;20.30;62.99;100563.25;5015305;28;20405;-74
2022/07/03 05:17:50;;;;;;;0.63;0.60;;;;;;;20.31;63.01;100564.88;5017706;28;20431;-74
2022/07/03 05:20:24;;;;;;;0.80;0.80;;;;;;;20.46;62.92;100563.72;5013684;28;20913;-74
2022/07/03 05:23:00;;;;;;;2.45;0.90;;;;;;;20.58;62.57;100570.31;5013190;28;20764;-74
2022/07/03 05:25:27;;;;;;;0.98;0.98;;;;;;;20.53;62.77;100564.94;5003117;28;20412;-74
2022/07/03 05:27:53;;;;;;;0.80;0.80;;;;;;;20.52;62.92;100568.81;5020685;28;20401;-74
2022/07/03 05:30:22;;;;;;;2.25;1.10;;;;;;;20.63;62.52;100567.47;5000706;28;20425;-74
2022/07/03 05:32:48;;;;;;;0.70;0.70;;;;;;;20.66;62.54;100572.38;5014692;28;20513;-74
2022/07/03 05:35:13;;;;;;;1.45;0.90;;;;;;;20.67;62.89;100567.69;5011672;28;20487;-74
2022/07/03 05:37:39;;;;;;;1.80;1.00;;;;;;;20.66;62.92;100571.56;5007384;28;20421;-74
2022/07/03 05:40:05;;;;;;;4.97;1.60;;;;;;;20.66;63.17;100569.63;5015911;28;20414;-74
2022/07/03 05:42:30;;;;;;;1.67;1.58;;;;;;;20.71;62.81;100572.25;5013692;28;20432;-74
2022/07/03 05:44:55;;;;;;;1.17;1.17;;;;;;;20.77;62.89;100566.63;5023978;28;20881;-74
2022/07/03 05:47:21;;;;;;;2.50;1.30;;;;;;;20.81;62.65;100576.72;5024726;28;20417;-74
2022/07/03 05:49:47;;;;;;;0.97;0.97;;;;;;;20.83;62.83;100570.91;5020444;28;20416;-74
2022/07/03 05:52:12;;;;;;;1.40;0.95;;;;;;;20.86;62.98;100571.09;5029455;28;20391;-74
2022/07/03 05:54:38;;;;;;;1.43;1.10;;;;;;;20.83;63.07;100574.47;5016633;28;20415;-74
2022/07/03 05:57:03;;;;;;;1.40;1.00;;;;;;;20.85;63.29;100572.22;5038567;28;20438;-76
2022/07/03 05:59:29;;;;;;;1.05;1.05;;;;;;;20.91;63.33;100581.19;5033543;28;20402;-74
2022/07/03 06:01:54;;;;;;;0.90;0.90;;;;;;;20.99;62.95;100580.44;5033536;28;20398;-74
2022/07/03 06:04:19;;;;;;;0.93;0.90;;;;;;;21.08;62.57;100573.06;5029298;28;20406;-74
2022/07/03 06:06:44;;;;;;;0.73;0.73;;;;;;;21.18;62.14;100576.41;5021365;28;20407;-75
2022/07/03 06:09:09;;;;;;;1.97;1.27;;;;;;;21.21;62.29;100572.22;5031602;28;20419;-75
2022/07/03 06:11:35;;;;;;;1.83;1.10;;;;;;;21.24;62.16;100577.09;5027201;28;20790;-75
2022/07/03 06:14:00;;;;;;;0.80;0.70;;;;;;;21.30;61.95;100577.81;5028904;28;20423;-74
2022/07/03 06:16:25;;;;;;;3.90;0.70;;;;;;;21.35;61.70;100580.44;5020949;28;20503;-75
2022/07/03 06:18:51;;;;;;;0.80;0.80;;;;;;;21.40;61.60;100591.34;5008945;28;20449;-74
2022/07/03 06:21:16;;;;;;;0.90;0.90;;;;;;;21.45;61.43;100588.44;5019288;28;20424;-75
2022/07/03 06:23:41;;;;;;;0.50;0.50;;;;;;;21.46;61.29;100596.44;5015811;28;20419;-79
2022/07/03 06:26:07;;;;;;;1.80;0.90;;;;;;;21.53;60.79;100601.50;5017253;28;20423;-77
2022/07/03 06:28:32;;;;;;;1.37;0.90;;;;;;;21.53;60.50;100594.03;5022676;28;20874;-79
2022/07/03 06:30:57;;;;;;;0.70;0.70;;;;;;;21.60;60.09;100599.13;5022617;28;20923;-87
2022/07/03 06:33:22;;;;;;;0.80;0.80;;;;;;;21.66;60.09;100606.13;5019479;28;20409;-78
2022/07/03 06:35:48;;;;;;;1.50;0.87;;;;;;;21.73;59.62;100601.78;5033414;28;20387;-78
2022/07/03 06:38:13;;;;;;;4.60;0.83;;;;;;;21.77;59.05;100601.16;5008874;28;20408;-76
2022/07/03 06:40:39;;;;;;;4.50;0.70;;;;;;;21.82;58.34;100603.78;5015811;28;20430;-76
2022/07/03 06:43:07;;;;;;;1.63;0.80;;;;;;;21.83;58.20;100609.00;5015613;28;20412;-77
2022/07/03 06:45:33;;;;;;;2.30;0.40;;;;;;;21.87;58.26;100612.72;5025989;28;20449;-76
2022/07/03 06:47:58;;;;;;;2.03;0.70;;;;;;;21.92;58.16;100604.38;5013781;28;20430;-77
2022/07/03 06:50:23;;;;;;;1.87;0.70;;;;;;;22.00;57.61;100606.34;5006287;28;20413;-76
2022/07/03 06:52:48;;;;;;;2.28;0.75;;;;;;;22.05;57.72;100605.41;5043551;28;20407;-76
2022/07/03 06:55:14;;;;;;;0.60;0.60;;;;;;;22.11;57.63;100598.59;5015095;28;20513;-76
2022/07/03 06:57:39;;;;;;;2.50;0.70;;;;;;;22.18;57.23;100593.44;5021459;28;20461;-76
2022/07/03 07:00:05;;;;;;;0.57;0.57;;;;;;;22.26;57.10;100602.91;5022174;28;20469;-76
2022/07/03 07:02:30;;;;;;;0.43;0.43;;;;;;;22.31;57.07;100594.44;5009498;28;20409;-77
2022/07/03 07:04:56;;;;;;;1.60;0.50;;;;;;;22.37;56.43;100588.47;4996737;28;20484;-76
2022/07/03 07:07:21;;;;;;;1.30;0.60;;;;;;;22.43;56.01;100592.69;5028803;28;20407;-76
2022/07/03 07:09:46;;;;;;;2.23;0.77;;;;;;;22.49;55.09;100585.91;5020155;28;20464;-76
2022/07/03 07:12:11;;;;;;;0.43;0.43;;;;;;;22.52;54.87;100581.69;5017374;28;20747;-75
2022/07/03 07:14:37;;;;;;;1.30;0.63;;;;;;;22.56;54.52;100580.72;5025750;28;20396;-75
2022/07/03 07:17:02;;;;;;;2.83;0.50;;;;;;;22.61;53.86;100586.09;5021731;28;20429;-75
2022/07/03 07:19:27;;;;;;;1.40;0.47;;;;;;;22.65;53.62;100583.50;5036257;28;20538;-75
2022/07/03 07:21:53;;;;;;;0.53;0.53;;;;;;;22.72;53.12;100581.13;5032907;28;20398;-76
2022/07/03 07:24:18;;;;;;;1.00;0.70;;;;;;;22.80;53.00;100585.00;5032732;28;20743;-76
2022/07/03 07:26:43;;;;;;;0.40;0.40;;;;;;;22.86;52.30;100581.78;5010558;28;20409;-75
2022/07/03 07:29:08;;;;;;;1.20;0.40;;;;;;;22.92;52.05;100588.75;5000148;28;20507;-76
2022/07/03 07:31:34;;;;;;;0.60;0.43;;;;;;;23.00;52.23;100592.69;5010545;28;20423;-75
2022/07/03 07:34:00;;;;;;;0.43;0.43;;;;;;;23.08;51.72;100589.94;5002201;28;21154;-75
2022/07/03 07:36:25;;;;;;;1.92;0.50;;;;;;;23.17;51.42;100595.47;5011358;28;20928;-75
2022/07/03 07:38:50;;;;;;;1.53;0.50;;;;;;;23.23;51.18;100591.38;5012184;28;20507;-75
2022/07/03 07:41:16;;;;;;;2.13;0.70;;;;;;;23.31;51.10;100590.59;5025865;28;20757;-75
2022/07/03 07:43:41;;;;;;;0.47;0.47;;;;;;;23.35;50.96;100597.06;5031625;28;20395;-76
2022/07/03 07:46:07;;;;;;;1.27;0.53;;;;;;;23.37;50.13;100589.28;5047257;28;20750;-75
2022/07/03 07:48:35;;;;;;;1.77;0.37;;;;;;;23.41;50.14;100586.69;5031681;28;20388;-75
2022/07/03 07:51:01;;;;;;;1.00;0.30;;;;;;;23.44;50.29;100586.84;5033765;28;20415;-75
2022/07/03 07:53:26;;;;;;;0.82;0.70;;;;;;;23.54;51.09;100588.47;5032159;28;20828;-76
2022/07/03 07:55:51;;;;;;;1.90;0.50;;;;;;;23.64;51.28;100585.34;5031856;28;20398;-74
2022/07/03 07:58:17;;;;;;;0.70;0.50;;;;;;;23.68;50.77;100581.59;5026046;28;20397;-74
2022/07/03 08:05:35;;;;;;;1.30;0.50;;;;;;;23.74;50.73;100587.78;5028320;28;20387;-75
2022/07/03 08:06:11;;;;;;;0.60;0.60;;;;;;;23.85;49.87;100591.78;5022094;28;20944;-76
2022/07/03 08:08:36;;;;;;;0.40;0.40;;;;;;;23.85;49.80;100593.75;5031998;28;20438;-76
2022/07/03 08:11:01;;;;;;;1.10;0.60;;;;;;;23.88;50.00;100595.84;5046901;28;20770;-75
2022/07/03 08:13:27;;;;;;;1.10;0.50;;;;;;;23.94;49.96;100595.34;5031815;28;20391;-74
2022/07/03 08:15:52;;;;;;;1.50;0.80;;;;;;;24.03;48.75;100589.78;5025950;28;20400;-75
2022/07/03 08:18:17;;;;;;;0.43;0.43;;;;;;;24.09;49.80;100592.06;5031699;28;20407;-75
2022/07/03 08:20:43;;;;;;;0.80;0.40;;;;;;;24.15;48.57;100590.75;5031521;28;20391;-75
2022/07/03 08:23:08;;;;;;;0.60;0.43;;;;;;;24.19;48.67;100590.91;5031790;28;20387;-75
2022/07/03 08:25:33;;;;;;;1.50;0.70;;;;;;;24.25;48.29;100592.34;5031232;28;20452;-75
2022/07/03 08:27:59;;;;;;;1.50;0.50;;;;;;;24.28;47.24;100586.13;5030015;28;20434;-75
2022/07/03 08:30:25;;;;;;;1.20;0.40;;;;;;;24.41;46.45;100590.63;5022606;28;20809;-75
2022/07/03 08:32:53;;;;;;;0.90;0.47;;;;;;;24.47;45.84;100586.50;5016584;28;20473;-76
2022/07/03 08:35:18;;;;;;;0.30;0.30;;;;;;;24.46;46.06;100589.63;5031127;28;20879;-75
2022/07/03 08:37:46;;;;;;;2.10;0.50;;;;;;;24.46;45.66;100582.13;5031322;28;20388;-75
2022/07/03 08:40:12;;;;;;;1.90;0.40;;;;;;;24.58;46.13;100587.75;5031867;28;20755;-75
2022/07/03 08:42:43;;;;;;;1.60;0.40;;;;;;;24.68;45.98;100583.78;5028339;28;20960;-75
2022/07/03 08:45:13;;;;;;;0.70;0.50;;;;;;;24.83;46.54;100579.66;5039068;28;20400;-75
2022/07/03 08:47:41;;;;;;;3.20;0.32;;;;;;;24.98;45.31;100585.41;5042363;28;20477;-75
2022/07/03 08:50:06;;;;;;;0.73;0.38;;;;;;;25.09;43.99;100588.59;5030013;28;20403;-75
2022/07/03 08:52:35;;;;;;;0.50;0.50;;;;;;;25.12;44.07;100576.81;5025463;28;20391;-74
2022/07/03 08:55:02;;;;;;;1.20;0.40;;;;;;;25.28;43.84;100583.34;5014332;28;20841;-74
2022/07/03 08:57:31;;;;;;;0.20;0.20;;;;;;;25.45;42.96;100587.94;5031195;28;20535;-74
2022/07/03 08:59:57;;;;;;;1.33;0.47;;;;;;;25.54;42.39;100581.19;5027668;28;20395;-74
2022/07/03 09:02:24;;;;;;;5.68;0.63;;;;;;;25.64;43.04;100577.97;5022793;28;20865;-73
2022/07/03 09:04:50;;;;;;;1.45;0.40;;;;;;;25.77;43.19;100587.13;5028774;28;20406;-74
2022/07/03 09:07:18;;;;;;;0.37;0.30;;;;;;;25.83;42.95;100584.94;5031219;28;20870;-74
2022/07/03 09:09:44;;;;;;;1.17;0.80;;;;;;;25.87;42.78;100586.69;5031106;28;20462;-74
2022/07/03 09:12:09;;;;;;;0.30;0.30;;;;;;;25.94;42.89;100578.63;5019177;28;20494;-74
2022/07/03 09:14:35;;;;;;;1.07;0.33;;;;;;;25.94;42.92;100580.59;5027966;28;20441;-75
2022/07/03 09:17:00;;;;;;;0.60;0.40;;;;;;;25.98;42.51;100593.44;5030273;28;20391;-74
2022/07/03 09:19:46;;;;;;;0.53;0.53;;;;;;;26.03;41.95;100584.88;5028720;28;20403;-74
2022/07/03 09:22:32;;;;;;;1.40;0.40;;;;;;;26.20;42.40;100576.38;5032970;28;20395;-75
2022/07/03 09:25:07;;;;;;;0.32;0.30;;;;;;;26.40;42.62;100587.72;5035104;28;20766;-75
2022/07/03 09:27:33;;;;;;;0.93;0.40;;;;;;;26.55;41.80;100573.09;5031513;28;20407;-75
2022/07/03 09:30:01;;;;;;;1.40;0.40;;;;;;;26.67;41.69;100581.44;4997529;28;20501;-75
2022/07/03 09:32:32;;;;;;;1.77;0.70;;;;;;;26.82;41.31;100583.53;5029251;28;20407;-75
2022/07/03 09:35:24;;;;;;;4.87;0.50;;;;;;;26.92;41.00;100576.66;5034875;28;20395;-75
2022/07/03 09:37:55;;;;;;;0.52;0.30;;;;;;;27.12;40.90;100586.81;5034859;28;20391;-75
2022/07/03 09:40:25;;;;;;;1.40;0.85;;;;;;;27.24;39.81;100570.88;5034304;28;20391;-72
2022/07/03 09:43:00;;;;;;;2.65;0.47;;;;;;;27.29;38.89;100578.19;5023527;28;20406;-75
2022/07/03 09:45:26;;;;;;;0.68;0.28;;;;;;;27.36;39.12;100572.81;5017061;28;20434;-72
2022/07/03 09:47:51;;;;;;;2.28;0.35;;;;;;;27.56;39.33;100577.41;5034677;28;20418;-73
2022/07/03 09:50:16;;;;;;;0.30;0.30;;;;;;;27.72;38.43;100569.06;5033909;28;20906;-75
2022/07/03 09:52:46;;;;;;;1.27;0.30;;;;;;;27.92;39.25;100567.19;5034851;28;20390;-74
2022/07/03 09:55:11;;;;;;;1.25;0.43;;;;;;;28.15;38.60;100574.59;5034703;28;20387;-73
2022/07/03 09:57:50;;;;;;;0.70;0.37;;;;;;;28.32;37.71;100571.44;5022497;28;20511;-74
2022/07/03 10:00:21;;;;;;;0.80;0.40;;;;;;;28.63;37.02;100570.56;5033574;28;20402;-74
2022/07/03 10:02:53;;;;;;;0.43;0.40;;;;;;;29.21;35.60;100563.09;5043010;28;20450;-75
2022/07/03 10:05:19;;;;;;;1.73;0.52;;;;;;;29.78;34.34;100555.84;5034449;28;20394;-75
2022/07/03 10:08:01;;;;;;;1.98;0.43;;;;;;;30.14;35.04;100569.28;5034001;28;20383;-75
2022/07/03 10:10:33;;;;;;;0.30;0.30;;;;;;;30.94;32.85;100567.34;5007280;28;20490;-74
2022/07/03 10:13:00;;;;;;;0.30;0.30;;;;;;;31.67;30.88;100561.88;5022691;28;20409;-75
2022/07/03 10:15:27;;;;;;;2.05;0.50;;;;;;;32.89;29.31;100563.31;5029007;28;20413;-76
2022/07/03 10:17:56;;;;;;;0.45;0.40;;;;;;;33.62;28.15;100566.84;5033705;28;20385;-75
2022/07/03 10:20:48;;;;;;;0.40;0.40;;;;;;;34.57;26.73;100568.91;5034252;28;20452;-75
2022/07/03 10:23:21;;;;;;;1.23;0.30;;;;;;;35.06;25.94;100570.00;5030159;28;20771;-73
2022/07/03 10:25:47;;;;;;;1.20;0.60;;;;;;;35.60;24.62;100568.59;5033447;28;20397;-75
2022/07/03 10:28:13;;;;;;;0.22;0.22;;;;;;;36.42;23.67;100563.97;5019127;28;20411;-73
2022/07/03 10:30:39;;;;;;;1.43;0.30;;;;;;;36.75;23.24;100570.91;5034043;28;20853;-74
2022/07/03 10:33:05;;;;;;;0.55;0.30;;;;;;;37.32;23.10;100565.38;5033667;28;20438;-74
2022/07/03 10:35:39;;;;;;;1.10;0.30;;;;;;;37.81;21.33;100567.53;5033464;28;20433;-73
2022/07/03 10:38:10;;;;;;;0.25;0.22;;;;;;;38.31;21.25;100564.72;5022698;28;20751;-73
2022/07/03 10:46:26;;;;;;;1.80;0.30;;;;;;;39.17;20.51;100563.91;5007019;28;20407;-73
2022/07/03 10:49:10;;;;;;;2.40;0.32;;;;;;;39.47;20.27;100562.88;5028303;28;20395;-73
2022/07/03 10:51:45;;;;;;;0.20;0.20;;;;;;;39.13;19.86;100560.34;5048799;28;20941;-74
2022/07/03 10:54:17;;;;;;;1.20;0.20;;;;;;;39.06;19.95;100560.53;5033454;28;20494;-73
2022/07/03 10:56:57;;;;;;;0.80;0.50;;;;;;;39.52;19.37;100556.72;5033032;28;20403;-73
2022/07/03 10:59:46;;;;;;;0.70;0.20;;;;;;;39.66;19.22;100557.16;5013539;28;20411;-74
2022/07/03 11:02:23;;;;;;;0.23;0.20;;;;;;;39.90;19.30;100557.84;4994736;28;20405;-73
2022/07/03 11:05:01;;;;;;;1.65;0.20;;;;;;;40.37;18.96;100553.44;5029667;28;20444;-74
2022/07/03 11:07:33;;;;;;;0.90;0.22;;;;;;;40.41;18.74;100544.78;5048171;28;20402;-74
2022/07/03 11:10:10;;;;;;;1.30;0.20;;;;;;;40.71;18.71;100549.28;5017726;28;20760;-74
2022/07/03 11:13:05;;;;;;;2.00;0.30;;;;;;;40.74;18.08;100546.31;5021297;28;20499;-74
2022/07/03 11:15:31;;;;;;;0.52;0.30;;;;;;;40.94;17.82;100549.81;5048607;28;20475;-74
2022/07/03 11:18:12;;;;;;;0.90;0.30;;;;;;;40.54;18.43;100542.06;5033210;28;20391;-74
2022/07/03 11:20:43;;;;;;;0.70;0.20;;;;;;;40.64;17.93;100547.41;5032382;28;20387;-73
2022/07/03 11:23:30;;;;;;;0.30;0.30;;;;;;;40.41;18.33;100539.09;5032924;28;20391;-73
2022/07/03 11:26:01;;;;;;;1.00;0.43;;;;;;;41.06;17.89;100530.44;5034495;28;20471;-73
2022/07/03 11:28:32;;;;;;;0.30;0.30;;;;;;;41.59;16.99;100532.47;5026826;28;20399;-74
2022/07/03 11:33:53;;;;;;;0.93;0.20;;;;;;;41.74;16.84;100527.91;5032751;28;20407;-74
2022/07/03 11:36:21;;;;;;;0.50;0.30;;;;;;;41.77;17.26;100523.34;5047254;28;20402;-74
2022/07/03 11:39:02;;;;;;;0.75;0.45;;;;;;;41.63;17.07;100516.06;5047991;28;20470;-74
2022/07/03 11:41:30;;;;;;;1.25;0.20;;;;;;;41.65;17.39;100513.56;5023489;28;20449;-73
2022/07/03 11:44:05;;;;;;;2.67;0.30;;;;;;;41.24;17.57;100513.63;5031877;28;20437;-74
2022/07/03 11:46:33;;;;;;;0.73;0.38;;;;;;;41.58;17.44;100508.09;5031774;28;20744;-74
2022/07/03 11:49:10;;;;;;;1.20;0.32;;;;;;;41.98;16.98;100511.28;5047778;28;20453;-74